sensor_id;sensor_type;location;lat;lon;timestamp;temperature;humidity
5466;DHT22;2755;50.728;7.108;2023-04-06T00:00:50;2.60;34.80
5466;DHT22;2755;50.728;7.108;2023-04-06T00:05:42;2.40;36.20
5466;DHT22;2755;50.728;7.108;2023-04-06T00:08:08;2.30;34.20
5466;DHT22;2755;50.728;7.108;2023-04-06T00:10:34;2.30;35.60
5466;DHT22;2755;50.728;7.108;2023-04-06T00:12:59;2.20;35.10
5466;DHT22;2755;50.728;7.108;2023-04-06T00:15:26;2.40;37.80
5466;DHT22;2755;50.728;7.108;2023-04-06T00:17:52;2.30;37.40
5466;DHT22;2755;50.728;7.108;2023-04-06T00:20:18;2.10;35.10
5466;DHT22;2755;50.728;7.108;2023-04-06T00:22:44;2.30;35.50
5466;DHT22;2755;50.728;7.108;2023-04-06T00:25:10;1.90;36.10
5466;DHT22;2755;50.728;7.108;2023-04-06T00:27:37;1.90;39.10
5466;DHT22;2755;50.728;7.108;2023-04-06T00:30:04;1.80;36.60
5466;DHT22;2755;50.728;7.108;2023-04-06T00:32:30;2.80;35.30
5466;DHT22;2755;50.728;7.108;2023-04-06T00:34:56;2.20;37.60
5466;DHT22;2755;50.728;7.108;2023-04-06T00:37:22;2.20;38.30
5466;DHT22;2755;50.728;7.108;2023-04-06T00:39:48;2.60;37.90
5466;DHT22;2755;50.728;7.108;2023-04-06T00:42:14;2.20;34.80
5466;DHT22;2755;50.728;7.108;2023-04-06T00:44:40;2.40;36.80
5466;DHT22;2755;50.728;7.108;2023-04-06T00:47:07;2.20;33.90
5466;DHT22;2755;50.728;7.108;2023-04-06T00:49:33;2.20;35.20
5466;DHT22;2755;50.728;7.108;2023-04-06T00:51:59;2.80;36.90
5466;DHT22;2755;50.728;7.108;2023-04-06T00:54:25;2.40;36.00
5466;DHT22;2755;50.728;7.108;2023-04-06T00:56:51;2.20;33.90
5466;DHT22;2755;50.728;7.108;2023-04-06T00:59:16;2.20;33.70
5466;DHT22;2755;50.728;7.108;2023-04-06T01:04:08;2.10;34.10
5466;DHT22;2755;50.728;7.108;2023-04-06T01:06:34;2.30;34.50
5466;DHT22;2755;50.728;7.108;2023-04-06T01:09:00;2.80;34.50
5466;DHT22;2755;50.728;7.108;2023-04-06T01:11:25;2.10;34.30
5466;DHT22;2755;50.728;7.108;2023-04-06T01:13:52;1.70;34.20
5466;DHT22;2755;50.728;7.108;2023-04-06T01:16:17;2.50;34.60
5466;DHT22;2755;50.728;7.108;2023-04-06T01:18:43;2.00;34.20
5466;DHT22;2755;50.728;7.108;2023-04-06T01:21:09;1.40;36.10
5466;DHT22;2755;50.728;7.108;2023-04-06T01:23:43;0.90;35.90
5466;DHT22;2755;50.728;7.108;2023-04-06T01:26:09;2.30;37.20
5466;DHT22;2755;50.728;7.108;2023-04-06T01:28:35;1.30;36.10
5466;DHT22;2755;50.728;7.108;2023-04-06T01:31:02;2.00;33.70
5466;DHT22;2755;50.728;7.108;2023-04-06T01:33:28;2.30;35.10
5466;DHT22;2755;50.728;7.108;2023-04-06T01:35:54;2.10;35.70
5466;DHT22;2755;50.728;7.108;2023-04-06T01:38:20;2.10;38.70
5466;DHT22;2755;50.728;7.108;2023-04-06T01:40:45;2.20;36.70
5466;DHT22;2755;50.728;7.108;2023-04-06T01:43:11;2.10;39.50
5466;DHT22;2755;50.728;7.108;2023-04-06T01:45:37;1.90;36.20
5466;DHT22;2755;50.728;7.108;2023-04-06T01:48:03;2.10;36.00
5466;DHT22;2755;50.728;7.108;2023-04-06T01:50:29;2.20;37.90
5466;DHT22;2755;50.728;7.108;2023-04-06T01:52:54;2.60;35.30
5466;DHT22;2755;50.728;7.108;2023-04-06T01:55:20;2.20;32.90
5466;DHT22;2755;50.728;7.108;2023-04-06T01:57:46;2.20;33.20
5466;DHT22;2755;50.728;7.108;2023-04-06T02:00:12;1.90;33.80
5466;DHT22;2755;50.728;7.108;2023-04-06T02:02:38;2.40;36.40
5466;DHT22;2755;50.728;7.108;2023-04-06T02:05:04;2.10;36.20
5466;DHT22;2755;50.728;7.108;2023-04-06T02:07:30;2.20;36.40
5466;DHT22;2755;50.728;7.108;2023-04-06T02:09:55;2.30;33.50
5466;DHT22;2755;50.728;7.108;2023-04-06T02:12:21;2.40;37.00
5466;DHT22;2755;50.728;7.108;2023-04-06T02:14:47;2.30;35.80
5466;DHT22;2755;50.728;7.108;2023-04-06T02:17:12;1.70;34.20
5466;DHT22;2755;50.728;7.108;2023-04-06T02:19:38;2.40;38.50
5466;DHT22;2755;50.728;7.108;2023-04-06T02:22:03;2.20;38.00
5466;DHT22;2755;50.728;7.108;2023-04-06T02:24:29;1.80;36.50
5466;DHT22;2755;50.728;7.108;2023-04-06T02:26:55;2.10;36.60
5466;DHT22;2755;50.728;7.108;2023-04-06T02:29:20;2.00;36.50
5466;DHT22;2755;50.728;7.108;2023-04-06T02:31:46;2.10;39.30
5466;DHT22;2755;50.728;7.108;2023-04-06T02:36:44;1.50;40.10
5466;DHT22;2755;50.728;7.108;2023-04-06T02:39:10;1.60;37.80
5466;DHT22;2755;50.728;7.108;2023-04-06T02:41:35;1.50;40.10
5466;DHT22;2755;50.728;7.108;2023-04-06T02:44:01;1.40;40.20
5466;DHT22;2755;50.728;7.108;2023-04-06T02:46:27;1.30;40.20
5466;DHT22;2755;50.728;7.108;2023-04-06T02:48:52;1.30;41.70
5466;DHT22;2755;50.728;7.108;2023-04-06T02:51:18;0.60;43.50
5466;DHT22;2755;50.728;7.108;2023-04-06T02:53:44;1.10;45.10
5466;DHT22;2755;50.728;7.108;2023-04-06T02:56:10;1.10;47.30
5466;DHT22;2755;50.728;7.108;2023-04-06T02:58:35;0.80;48.20
5466;DHT22;2755;50.728;7.108;2023-04-06T03:03:28;1.00;47.50
5466;DHT22;2755;50.728;7.108;2023-04-06T03:05:53;1.70;49.00
5466;DHT22;2755;50.728;7.108;2023-04-06T03:08:21;1.00;51.00
5466;DHT22;2755;50.728;7.108;2023-04-06T03:10:47;1.00;52.20
5466;DHT22;2755;50.728;7.108;2023-04-06T03:13:12;1.00;52.30
5466;DHT22;2755;50.728;7.108;2023-04-06T03:15:38;0.90;50.10
5466;DHT22;2755;50.728;7.108;2023-04-06T03:20:29;0.80;51.00
5466;DHT22;2755;50.728;7.108;2023-04-06T03:22:55;1.00;52.80
5466;DHT22;2755;50.728;7.108;2023-04-06T03:25:21;1.50;55.30
5466;DHT22;2755;50.728;7.108;2023-04-06T03:32:38;0.80;56.00
5466;DHT22;2755;50.728;7.108;2023-04-06T03:35:04;1.00;55.10
5466;DHT22;2755;50.728;7.108;2023-04-06T03:37:30;0.30;52.80
5466;DHT22;2755;50.728;7.108;2023-04-06T03:39:55;1.40;54.50
5466;DHT22;2755;50.728;7.108;2023-04-06T03:42:21;1.20;57.30
5466;DHT22;2755;50.728;7.108;2023-04-06T03:44:47;0.80;53.70
5466;DHT22;2755;50.728;7.108;2023-04-06T03:47:12;1.40;57.70
5466;DHT22;2755;50.728;7.108;2023-04-06T03:49:38;0.70;53.40
5466;DHT22;2755;50.728;7.108;2023-04-06T03:52:03;0.90;54.60
5466;DHT22;2755;50.728;7.108;2023-04-06T03:54:29;0.60;57.20
5466;DHT22;2755;50.728;7.108;2023-04-06T03:56:55;1.20;56.80
5466;DHT22;2755;50.728;7.108;2023-04-06T03:59:20;1.30;56.40
5466;DHT22;2755;50.728;7.108;2023-04-06T04:01:46;0.80;52.60
5466;DHT22;2755;50.728;7.108;2023-04-06T04:04:11;1.40;55.90
5466;DHT22;2755;50.728;7.108;2023-04-06T04:06:37;1.00;51.30
5466;DHT22;2755;50.728;7.108;2023-04-06T04:09:03;1.20;52.50
5466;DHT22;2755;50.728;7.108;2023-04-06T04:11:28;1.20;52.20
5466;DHT22;2755;50.728;7.108;2023-04-06T04:13:54;0.70;48.70
5466;DHT22;2755;50.728;7.108;2023-04-06T04:16:20;0.50;49.00
5466;DHT22;2755;50.728;7.108;2023-04-06T04:18:45;0.90;49.90
5466;DHT22;2755;50.728;7.108;2023-04-06T04:21:12;1.00;48.30
5466;DHT22;2755;50.728;7.108;2023-04-06T04:23:38;1.00;50.00
5466;DHT22;2755;50.728;7.108;2023-04-06T04:26:04;2.00;47.40
5466;DHT22;2755;50.728;7.108;2023-04-06T04:28:30;1.10;45.40
5466;DHT22;2755;50.728;7.108;2023-04-06T04:33:22;1.90;44.80
5466;DHT22;2755;50.728;7.108;2023-04-06T04:35:48;1.10;46.20
5466;DHT22;2755;50.728;7.108;2023-04-06T04:38:13;1.40;43.00
5466;DHT22;2755;50.728;7.108;2023-04-06T04:40:39;1.30;43.00
5466;DHT22;2755;50.728;7.108;2023-04-06T04:43:05;1.70;45.80
5466;DHT22;2755;50.728;7.108;2023-04-06T04:45:30;1.80;43.20
5466;DHT22;2755;50.728;7.108;2023-04-06T04:47:56;1.40;42.40
5466;DHT22;2755;50.728;7.108;2023-04-06T04:50:21;1.50;42.10
5466;DHT22;2755;50.728;7.108;2023-04-06T04:55:13;1.20;41.90
5466;DHT22;2755;50.728;7.108;2023-04-06T04:57:39;1.60;45.10
5466;DHT22;2755;50.728;7.108;2023-04-06T05:00:05;1.70;41.80
5466;DHT22;2755;50.728;7.108;2023-04-06T05:02:31;1.90;45.10
5466;DHT22;2755;50.728;7.108;2023-04-06T05:04:57;1.30;40.50
5466;DHT22;2755;50.728;7.108;2023-04-06T05:07:23;1.60;40.50
5466;DHT22;2755;50.728;7.108;2023-04-06T05:09:48;2.00;43.50
5466;DHT22;2755;50.728;7.108;2023-04-06T05:12:14;1.90;41.30
5466;DHT22;2755;50.728;7.108;2023-04-06T05:14:40;1.90;42.90
5466;DHT22;2755;50.728;7.108;2023-04-06T05:17:05;1.90;42.40
5466;DHT22;2755;50.728;7.108;2023-04-06T05:19:31;1.80;39.20
5466;DHT22;2755;50.728;7.108;2023-04-06T05:24:23;1.90;41.10
5466;DHT22;2755;50.728;7.108;2023-04-06T05:26:49;2.50;43.40
5466;DHT22;2755;50.728;7.108;2023-04-06T05:29:15;2.30;42.30
5466;DHT22;2755;50.728;7.108;2023-04-06T05:31:42;2.40;41.00
5466;DHT22;2755;50.728;7.108;2023-04-06T05:34:07;2.70;37.30
5466;DHT22;2755;50.728;7.108;2023-04-06T05:39:00;3.20;34.60
5466;DHT22;2755;50.728;7.108;2023-04-06T05:43:52;3.10;32.60
5466;DHT22;2755;50.728;7.108;2023-04-06T05:46:18;3.80;32.00
5466;DHT22;2755;50.728;7.108;2023-04-06T05:56:03;3.30;28.30
5466;DHT22;2755;50.728;7.108;2023-04-06T05:58:29;3.80;27.30
5466;DHT22;2755;50.728;7.108;2023-04-06T06:01:01;4.00;26.50
5466;DHT22;2755;50.728;7.108;2023-04-06T06:06:00;4.40;25.30
5466;DHT22;2755;50.728;7.108;2023-04-06T06:20:36;6.60;16.70
5466;DHT22;2755;50.728;7.108;2023-04-06T06:27:56;6.90;11.40
5466;DHT22;2755;50.728;7.108;2023-04-06T06:32:49;6.90;9.50
5466;DHT22;2755;50.728;7.108;2023-04-06T06:37:41;6.80;8.50
5466;DHT22;2755;50.728;7.108;2023-04-06T06:40:08;7.00;7.60
5466;DHT22;2755;50.728;7.108;2023-04-06T06:45:00;7.40;10.20
5466;DHT22;2755;50.728;7.108;2023-04-06T06:59:36;9.10;1.00
5466;DHT22;2755;50.728;7.108;2023-04-06T07:11:45;9.10;1.00
5466;DHT22;2755;50.728;7.108;2023-04-06T07:14:11;9.20;1.00
5466;DHT22;2755;50.728;7.108;2023-04-06T07:28:47;10.60;1.00
5466;DHT22;2755;50.728;7.108;2023-04-06T07:36:05;10.60;1.00
5466;DHT22;2755;50.728;7.108;2023-04-06T08:02:51;12.50;1.00
5466;DHT22;2755;50.728;7.108;2023-04-06T08:10:09;12.20;1.00
5466;DHT22;2755;50.728;7.108;2023-04-06T08:29:40;12.40;1.00
5466;DHT22;2755;50.728;7.108;2023-04-06T08:34:33;12.30;1.00
5466;DHT22;2755;50.728;7.108;2023-04-06T08:49:16;14.10;1.00
5466;DHT22;2755;50.728;7.108;2023-04-06T08:56:37;13.50;1.00
5466;DHT22;2755;50.728;7.108;2023-04-06T09:01:31;13.20;1.00
5466;DHT22;2755;50.728;7.108;2023-04-06T09:03:59;12.80;1.00
5466;DHT22;2755;50.728;7.108;2023-04-06T09:08:57;13.90;1.00
5466;DHT22;2755;50.728;7.108;2023-04-06T09:11:23;15.50;1.00
5466;DHT22;2755;50.728;7.108;2023-04-06T09:13:56;14.40;1.00
5466;DHT22;2755;50.728;7.108;2023-04-06T09:18:49;14.60;1.00
5466;DHT22;2755;50.728;7.108;2023-04-06T09:21:18;14.80;1.00
5466;DHT22;2755;50.728;7.108;2023-04-06T09:26:18;15.80;1.00
5466;DHT22;2755;50.728;7.108;2023-04-06T09:28:53;15.70;1.00
5466;DHT22;2755;50.728;7.108;2023-04-06T09:31:24;15.60;1.00
5466;DHT22;2755;50.728;7.108;2023-04-06T09:38:56;15.50;1.00
5466;DHT22;2755;50.728;7.108;2023-04-06T09:43:50;16.30;1.00
5466;DHT22;2755;50.728;7.108;2023-04-06T09:46:17;16.50;1.00
5466;DHT22;2755;50.728;7.108;2023-04-06T09:51:14;17.20;1.00
5466;DHT22;2755;50.728;7.108;2023-04-06T09:53:42;17.30;1.00
5466;DHT22;2755;50.728;7.108;2023-04-06T09:58:37;17.40;1.00
5466;DHT22;2755;50.728;7.108;2023-04-06T10:01:15;17.10;1.00
5466;DHT22;2755;50.728;7.108;2023-04-06T10:06:44;17.40;1.00
5466;DHT22;2755;50.728;7.108;2023-04-06T10:19:14;18.00;1.00
5466;DHT22;2755;50.728;7.108;2023-04-06T10:21:44;18.30;1.00
5466;DHT22;2755;50.728;7.108;2023-04-06T10:24:12;18.50;1.00
5466;DHT22;2755;50.728;7.108;2023-04-06T10:34:01;18.20;1.00
5466;DHT22;2755;50.728;7.108;2023-04-06T10:39:04;17.80;1.00
5466;DHT22;2755;50.728;7.108;2023-04-06T10:41:33;17.60;1.00
5466;DHT22;2755;50.728;7.108;2023-04-06T10:46:30;17.50;1.00
5466;DHT22;2755;50.728;7.108;2023-04-06T10:51:27;17.20;1.00
5466;DHT22;2755;50.728;7.108;2023-04-06T10:56:22;17.10;1.00
5466;DHT22;2755;50.728;7.108;2023-04-06T11:01:19;17.20;1.00
5466;DHT22;2755;50.728;7.108;2023-04-06T11:03:47;17.30;1.00
5466;DHT22;2755;50.728;7.108;2023-04-06T11:06:22;16.20;1.00
5466;DHT22;2755;50.728;7.108;2023-04-06T11:11:16;17.00;1.00
5466;DHT22;2755;50.728;7.108;2023-04-06T11:13:54;17.10;1.00
5466;DHT22;2755;50.728;7.108;2023-04-06T11:16:24;16.90;1.00
5466;DHT22;2755;50.728;7.108;2023-04-06T11:19:02;17.00;1.00
5466;DHT22;2755;50.728;7.108;2023-04-06T11:24:07;16.90;1.00
5466;DHT22;2755;50.728;7.108;2023-04-06T11:26:45;16.80;1.00
5466;DHT22;2755;50.728;7.108;2023-04-06T11:29:20;16.70;1.00
5466;DHT22;2755;50.728;7.108;2023-04-06T11:36:43;16.50;1.00
5466;DHT22;2755;50.728;7.108;2023-04-06T11:39:11;16.60;1.00
5466;DHT22;2755;50.728;7.108;2023-04-06T11:41:37;16.30;1.00
5466;DHT22;2755;50.728;7.108;2023-04-06T11:44:03;16.60;1.00
5466;DHT22;2755;50.728;7.108;2023-04-06T11:48:59;16.70;1.00
5466;DHT22;2755;50.728;7.108;2023-04-06T11:51:26;17.70;1.00
5466;DHT22;2755;50.728;7.108;2023-04-06T11:53:56;16.50;1.00
5466;DHT22;2755;50.728;7.108;2023-04-06T11:56:23;17.00;1.00
5466;DHT22;2755;50.728;7.108;2023-04-06T12:01:15;17.30;1.00
5466;DHT22;2755;50.728;7.108;2023-04-06T12:03:41;17.30;1.00
5466;DHT22;2755;50.728;7.108;2023-04-06T12:10:59;17.00;1.00
5466;DHT22;2755;50.728;7.108;2023-04-06T12:13:24;17.20;1.00
5466;DHT22;2755;50.728;7.108;2023-04-06T12:23:09;17.70;1.00
5466;DHT22;2755;50.728;7.108;2023-04-06T12:25:34;17.70;1.00
5466;DHT22;2755;50.728;7.108;2023-04-06T12:30:26;16.40;1.00
5466;DHT22;2755;50.728;7.108;2023-04-06T12:32:52;17.30;1.00
5466;DHT22;2755;50.728;7.108;2023-04-06T12:37:44;16.90;1.00
5466;DHT22;2755;50.728;7.108;2023-04-06T12:40:10;17.10;1.00
5466;DHT22;2755;50.728;7.108;2023-04-06T12:42:38;17.00;1.00
5466;DHT22;2755;50.728;7.108;2023-04-06T12:45:06;17.10;1.00
5466;DHT22;2755;50.728;7.108;2023-04-06T12:49:58;17.50;1.00
5466;DHT22;2755;50.728;7.108;2023-04-06T12:52:23;16.70;1.00
5466;DHT22;2755;50.728;7.108;2023-04-06T12:59:45;17.00;1.00
5466;DHT22;2755;50.728;7.108;2023-04-06T13:04:37;16.80;1.00
5466;DHT22;2755;50.728;7.108;2023-04-06T13:07:03;16.60;1.00
5466;DHT22;2755;50.728;7.108;2023-04-06T13:11:54;16.40;1.00
5466;DHT22;2755;50.728;7.108;2023-04-06T13:19:13;16.70;1.00
5466;DHT22;2755;50.728;7.108;2023-04-06T13:21:39;16.00;1.00
5466;DHT22;2755;50.728;7.108;2023-04-06T13:26:31;15.70;1.00
5466;DHT22;2755;50.728;7.108;2023-04-06T13:31:24;15.00;1.00
5466;DHT22;2755;50.728;7.108;2023-04-06T13:33:49;15.10;1.00
5466;DHT22;2755;50.728;7.108;2023-04-06T13:38:41;14.60;1.00
5466;DHT22;2755;50.728;7.108;2023-04-06T13:41:07;14.30;1.00
5466;DHT22;2755;50.728;7.108;2023-04-06T13:43:32;14.20;1.00
5466;DHT22;2755;50.728;7.108;2023-04-06T13:48:26;13.90;1.00
5466;DHT22;2755;50.728;7.108;2023-04-06T13:50:52;13.60;1.00
5466;DHT22;2755;50.728;7.108;2023-04-06T13:53:18;13.70;1.00
5466;DHT22;2755;50.728;7.108;2023-04-06T13:58:09;12.90;1.00
5466;DHT22;2755;50.728;7.108;2023-04-06T14:00:35;13.40;1.00
5466;DHT22;2755;50.728;7.108;2023-04-06T14:05:32;13.60;1.00
5466;DHT22;2755;50.728;7.108;2023-04-06T14:10:23;13.10;1.00
5466;DHT22;2755;50.728;7.108;2023-04-06T14:12:52;14.00;1.00
5466;DHT22;2755;50.728;7.108;2023-04-06T14:20:10;13.60;1.00
5466;DHT22;2755;50.728;7.108;2023-04-06T14:22:40;14.30;1.00
5466;DHT22;2755;50.728;7.108;2023-04-06T14:32:25;13.30;1.00
5466;DHT22;2755;50.728;7.108;2023-04-06T14:34:50;13.10;1.00
5466;DHT22;2755;50.728;7.108;2023-04-06T14:39:43;12.90;1.00
5466;DHT22;2755;50.728;7.108;2023-04-06T14:47:02;12.60;1.00
5466;DHT22;2755;50.728;7.108;2023-04-06T14:51:55;11.90;1.00
5466;DHT22;2755;50.728;7.108;2023-04-06T14:54:21;11.60;1.00
5466;DHT22;2755;50.728;7.108;2023-04-06T14:59:12;11.20;1.00
5466;DHT22;2755;50.728;7.108;2023-04-06T15:06:30;11.40;4.10
5466;DHT22;2755;50.728;7.108;2023-04-06T15:08:57;11.60;6.50
5466;DHT22;2755;50.728;7.108;2023-04-06T15:16:14;11.60;8.10
5466;DHT22;2755;50.728;7.108;2023-04-06T15:18:40;11.70;7.10
5466;DHT22;2755;50.728;7.108;2023-04-06T15:23:32;11.10;8.40
5466;DHT22;2755;50.728;7.108;2023-04-06T15:28:26;11.40;10.10
5466;DHT22;2755;50.728;7.108;2023-04-06T15:30:52;11.10;12.00
5466;DHT22;2755;50.728;7.108;2023-04-06T15:33:20;11.00;12.40
5466;DHT22;2755;50.728;7.108;2023-04-06T15:35:46;10.60;13.70
5466;DHT22;2755;50.728;7.108;2023-04-06T15:38:14;10.40;16.90
5466;DHT22;2755;50.728;7.108;2023-04-06T15:40:45;10.50;17.50
5466;DHT22;2755;50.728;7.108;2023-04-06T15:43:11;10.50;22.20
5466;DHT22;2755;50.728;7.108;2023-04-06T15:45:37;10.30;25.50
5466;DHT22;2755;50.728;7.108;2023-04-06T15:48:03;10.20;24.90
5466;DHT22;2755;50.728;7.108;2023-04-06T15:52:55;10.20;32.30
5466;DHT22;2755;50.728;7.108;2023-04-06T15:55:21;9.80;33.00
5466;DHT22;2755;50.728;7.108;2023-04-06T16:00:13;10.10;42.10
5466;DHT22;2755;50.728;7.108;2023-04-06T16:02:39;9.30;41.70
5466;DHT22;2755;50.728;7.108;2023-04-06T16:05:05;9.40;50.20
5466;DHT22;2755;50.728;7.108;2023-04-06T16:07:31;9.20;47.60
5466;DHT22;2755;50.728;7.108;2023-04-06T16:14:49;9.00;56.30
5466;DHT22;2755;50.728;7.108;2023-04-06T16:17:15;9.20;66.10
5466;DHT22;2755;50.728;7.108;2023-04-06T16:19:41;8.40;69.20
5466;DHT22;2755;50.728;7.108;2023-04-06T16:24:32;8.90;76.70
5466;DHT22;2755;50.728;7.108;2023-04-06T16:26:58;8.70;78.40
5466;DHT22;2755;50.728;7.108;2023-04-06T16:29:25;8.30;77.90
5466;DHT22;2755;50.728;7.108;2023-04-06T16:31:56;8.30;85.20
5466;DHT22;2755;50.728;7.108;2023-04-06T16:34:22;8.10;92.50
5466;DHT22;2755;50.728;7.108;2023-04-06T16:39:14;8.60;95.10
5466;DHT22;2755;50.728;7.108;2023-04-06T16:44:07;8.70;96.10
5466;DHT22;2755;50.728;7.108;2023-04-06T16:46:35;8.00;95.70
5466;DHT22;2755;50.728;7.108;2023-04-06T16:49:02;7.90;99.20
5466;DHT22;2755;50.728;7.108;2023-04-06T16:51:28;7.70;97.10
5466;DHT22;2755;50.728;7.108;2023-04-06T16:56:20;7.80;99.90
5466;DHT22;2755;50.728;7.108;2023-04-06T16:58:46;7.10;99.90
5466;DHT22;2755;50.728;7.108;2023-04-06T17:01:19;7.50;99.90
5466;DHT22;2755;50.728;7.108;2023-04-06T17:06:12;7.50;99.90
5466;DHT22;2755;50.728;7.108;2023-04-06T17:08:37;6.90;99.90
5466;DHT22;2755;50.728;7.108;2023-04-06T17:11:03;7.40;99.90
5466;DHT22;2755;50.728;7.108;2023-04-06T17:13:29;7.20;99.90
5466;DHT22;2755;50.728;7.108;2023-04-06T17:23:13;7.50;99.90
5466;DHT22;2755;50.728;7.108;2023-04-06T17:28:05;7.40;99.90
5466;DHT22;2755;50.728;7.108;2023-04-06T17:30:31;7.10;99.90
5466;DHT22;2755;50.728;7.108;2023-04-06T17:32:58;7.20;99.90
5466;DHT22;2755;50.728;7.108;2023-04-06T17:37:51;7.10;99.90
5466;DHT22;2755;50.728;7.108;2023-04-06T17:40:16;7.20;99.90
5466;DHT22;2755;50.728;7.108;2023-04-06T17:42:42;7.00;99.90
5466;DHT22;2755;50.728;7.108;2023-04-06T17:45:08;7.00;99.90
5466;DHT22;2755;50.728;7.108;2023-04-06T17:47:33;7.10;99.90
5466;DHT22;2755;50.728;7.108;2023-04-06T17:50:00;7.20;99.90
5466;DHT22;2755;50.728;7.108;2023-04-06T17:52:27;7.00;99.90
5466;DHT22;2755;50.728;7.108;2023-04-06T17:54:53;7.20;99.90
5466;DHT22;2755;50.728;7.108;2023-04-06T17:57:19;7.10;99.90
5466;DHT22;2755;50.728;7.108;2023-04-06T17:59:45;6.70;99.90
5466;DHT22;2755;50.728;7.108;2023-04-06T18:02:10;6.80;99.90
5466;DHT22;2755;50.728;7.108;2023-04-06T18:04:36;7.40;99.90
5466;DHT22;2755;50.728;7.108;2023-04-06T18:07:02;6.90;99.90
5466;DHT22;2755;50.728;7.108;2023-04-06T18:09:30;7.10;99.90
5466;DHT22;2755;50.728;7.108;2023-04-06T18:11:56;7.10;99.90
5466;DHT22;2755;50.728;7.108;2023-04-06T18:14:22;6.70;99.90
5466;DHT22;2755;50.728;7.108;2023-04-06T18:16:48;6.80;99.90
5466;DHT22;2755;50.728;7.108;2023-04-06T18:19:14;6.80;99.90
5466;DHT22;2755;50.728;7.108;2023-04-06T18:24:06;7.10;99.90
5466;DHT22;2755;50.728;7.108;2023-04-06T18:28:57;6.80;99.90
5466;DHT22;2755;50.728;7.108;2023-04-06T18:31:23;7.10;99.90
5466;DHT22;2755;50.728;7.108;2023-04-06T18:38:46;6.50;99.90
5466;DHT22;2755;50.728;7.108;2023-04-06T18:41:12;7.20;99.90
5466;DHT22;2755;50.728;7.108;2023-04-06T18:43:38;6.90;99.90
5466;DHT22;2755;50.728;7.108;2023-04-06T18:46:13;6.80;99.90
5466;DHT22;2755;50.728;7.108;2023-04-06T18:48:41;6.70;99.90
5466;DHT22;2755;50.728;7.108;2023-04-06T18:51:08;6.90;99.90
5466;DHT22;2755;50.728;7.108;2023-04-06T18:56:00;6.70;99.90
5466;DHT22;2755;50.728;7.108;2023-04-06T18:58:26;6.90;99.90
5466;DHT22;2755;50.728;7.108;2023-04-06T19:00:55;6.70;99.90
5466;DHT22;2755;50.728;7.108;2023-04-06T19:03:23;6.20;99.90
5466;DHT22;2755;50.728;7.108;2023-04-06T19:05:49;6.80;99.90
5466;DHT22;2755;50.728;7.108;2023-04-06T19:10:41;6.10;99.90
5466;DHT22;2755;50.728;7.108;2023-04-06T19:15:33;6.90;99.90
5466;DHT22;2755;50.728;7.108;2023-04-06T19:17:59;6.90;99.90
5466;DHT22;2755;50.728;7.108;2023-04-06T19:25:17;6.80;99.90
5466;DHT22;2755;50.728;7.108;2023-04-06T19:27:43;6.80;99.90
5466;DHT22;2755;50.728;7.108;2023-04-06T19:30:10;6.70;99.90
5466;DHT22;2755;50.728;7.108;2023-04-06T19:32:37;6.70;99.90
5466;DHT22;2755;50.728;7.108;2023-04-06T19:35:06;6.70;99.90
5466;DHT22;2755;50.728;7.108;2023-04-06T19:37:32;6.60;99.90
5466;DHT22;2755;50.728;7.108;2023-04-06T19:39:58;6.80;99.90
5466;DHT22;2755;50.728;7.108;2023-04-06T19:42:24;6.90;99.90
5466;DHT22;2755;50.728;7.108;2023-04-06T19:44:50;6.50;99.90
5466;DHT22;2755;50.728;7.108;2023-04-06T19:47:16;6.80;99.90
5466;DHT22;2755;50.728;7.108;2023-04-06T19:49:42;6.80;99.90
5466;DHT22;2755;50.728;7.108;2023-04-06T19:52:09;6.80;99.90
5466;DHT22;2755;50.728;7.108;2023-04-06T19:54:35;6.80;99.90
5466;DHT22;2755;50.728;7.108;2023-04-06T19:57:02;6.80;99.90
5466;DHT22;2755;50.728;7.108;2023-04-06T19:59:28;6.90;99.90
5466;DHT22;2755;50.728;7.108;2023-04-06T20:04:19;6.80;99.90
5466;DHT22;2755;50.728;7.108;2023-04-06T20:06:45;7.00;99.90
5466;DHT22;2755;50.728;7.108;2023-04-06T20:09:11;6.90;99.90
5466;DHT22;2755;50.728;7.108;2023-04-06T20:11:37;6.90;99.90
5466;DHT22;2755;50.728;7.108;2023-04-06T20:14:03;6.90;99.90
5466;DHT22;2755;50.728;7.108;2023-04-06T20:16:29;6.90;99.90
5466;DHT22;2755;50.728;7.108;2023-04-06T20:18:55;6.70;99.90
5466;DHT22;2755;50.728;7.108;2023-04-06T20:21:21;6.80;99.90
5466;DHT22;2755;50.728;7.108;2023-04-06T20:23:46;7.30;99.90
5466;DHT22;2755;50.728;7.108;2023-04-06T20:26:12;6.30;99.90
5466;DHT22;2755;50.728;7.108;2023-04-06T20:31:04;6.40;99.90
5466;DHT22;2755;50.728;7.108;2023-04-06T20:33:30;7.00;99.90
5466;DHT22;2755;50.728;7.108;2023-04-06T20:35:59;6.70;99.90
5466;DHT22;2755;50.728;7.108;2023-04-06T20:40:51;7.10;99.90
5466;DHT22;2755;50.728;7.108;2023-04-06T20:43:17;7.20;99.90
5466;DHT22;2755;50.728;7.108;2023-04-06T20:48:12;7.10;99.90
5466;DHT22;2755;50.728;7.108;2023-04-06T20:50:40;7.10;99.90
5466;DHT22;2755;50.728;7.108;2023-04-06T20:53:05;6.70;99.90
5466;DHT22;2755;50.728;7.108;2023-04-06T20:57:58;6.90;99.90
5466;DHT22;2755;50.728;7.108;2023-04-06T21:00:24;6.60;99.90
5466;DHT22;2755;50.728;7.108;2023-04-06T21:12:33;6.80;99.90
5466;DHT22;2755;50.728;7.108;2023-04-06T21:14:59;7.00;99.90
5466;DHT22;2755;50.728;7.108;2023-04-06T21:17:25;6.60;99.90
5466;DHT22;2755;50.728;7.108;2023-04-06T21:19:51;7.10;99.90
5466;DHT22;2755;50.728;7.108;2023-04-06T21:22:17;7.10;99.90
5466;DHT22;2755;50.728;7.108;2023-04-06T21:24:43;7.10;99.90
5466;DHT22;2755;50.728;7.108;2023-04-06T21:29:37;7.00;99.90
5466;DHT22;2755;50.728;7.108;2023-04-06T21:32:03;7.10;99.90
5466;DHT22;2755;50.728;7.108;2023-04-06T21:34:29;6.70;99.90
5466;DHT22;2755;50.728;7.108;2023-04-06T21:41:48;7.20;99.90
5466;DHT22;2755;50.728;7.108;2023-04-06T21:44:14;6.90;99.90
5466;DHT22;2755;50.728;7.108;2023-04-06T21:46:39;6.90;99.90
5466;DHT22;2755;50.728;7.108;2023-04-06T21:51:31;7.00;99.90
5466;DHT22;2755;50.728;7.108;2023-04-06T21:53:56;7.60;99.90
5466;DHT22;2755;50.728;7.108;2023-04-06T21:56:23;7.00;99.90
5466;DHT22;2755;50.728;7.108;2023-04-06T21:58:50;7.20;99.90
5466;DHT22;2755;50.728;7.108;2023-04-06T22:01:16;6.70;99.90
5466;DHT22;2755;50.728;7.108;2023-04-06T22:03:43;7.40;99.90
5466;DHT22;2755;50.728;7.108;2023-04-06T22:06:08;6.60;99.90
5466;DHT22;2755;50.728;7.108;2023-04-06T22:08:34;6.80;99.90
5466;DHT22;2755;50.728;7.108;2023-04-06T22:13:27;6.80;99.90
5466;DHT22;2755;50.728;7.108;2023-04-06T22:15:53;6.70;99.90
5466;DHT22;2755;50.728;7.108;2023-04-06T22:18:19;7.00;99.90
5466;DHT22;2755;50.728;7.108;2023-04-06T22:23:11;7.40;99.90
5466;DHT22;2755;50.728;7.108;2023-04-06T22:25:37;6.80;99.90
5466;DHT22;2755;50.728;7.108;2023-04-06T22:28:03;7.00;99.90
5466;DHT22;2755;50.728;7.108;2023-04-06T22:30:30;6.80;99.90
5466;DHT22;2755;50.728;7.108;2023-04-06T22:32:56;6.90;99.90
5466;DHT22;2755;50.728;7.108;2023-04-06T22:35:22;7.30;99.90
5466;DHT22;2755;50.728;7.108;2023-04-06T22:40:13;6.50;99.90
5466;DHT22;2755;50.728;7.108;2023-04-06T22:42:39;6.90;99.90
5466;DHT22;2755;50.728;7.108;2023-04-06T22:47:31;7.10;99.90
5466;DHT22;2755;50.728;7.108;2023-04-06T22:49:58;6.60;99.90
5466;DHT22;2755;50.728;7.108;2023-04-06T22:52:23;7.20;99.90
5466;DHT22;2755;50.728;7.108;2023-04-06T22:54:49;7.00;99.90
5466;DHT22;2755;50.728;7.108;2023-04-06T22:57:14;6.60;99.90
5466;DHT22;2755;50.728;7.108;2023-04-06T22:59:40;7.50;99.90
5466;DHT22;2755;50.728;7.108;2023-04-06T23:02:06;7.00;99.90
5466;DHT22;2755;50.728;7.108;2023-04-06T23:04:32;6.50;99.90
5466;DHT22;2755;50.728;7.108;2023-04-06T23:09:23;7.10;99.90
5466;DHT22;2755;50.728;7.108;2023-04-06T23:11:49;7.60;99.90
5466;DHT22;2755;50.728;7.108;2023-04-06T23:14:15;7.00;99.90
5466;DHT22;2755;50.728;7.108;2023-04-06T23:16:40;7.40;99.90
5466;DHT22;2755;50.728;7.108;2023-04-06T23:19:06;7.40;99.90